Time;durP1;ratioP1;P1;durP2;ratioP2;P2;SDS_P1;SDS_P2;PMS_P1;PMS_P2;Temp;Humidity;BMP_temperature;BMP_pressure;BME280_temperature;BME280_humidity;BME280_pressure;Samples;Min_cycle;Max_cycle;Signal;HPM_P1;HPM_P2
2021/12/04 00:04:59;;;;;;;4.72;2.10;;;;;;;-0.98;100.00;94155.69;4941680;29;20047;-92
2021/12/04 00:07:27;;;;;;;5.15;2.65;;;;;;;-1.03;100.00;94148.59;4925066;29;20055;-92
2021/12/04 00:09:58;;;;;;;5.35;2.55;;;;;;;-1.29;100.00;94138.13;4940427;29;20027;-92
2021/12/04 00:12:23;;;;;;;3.35;2.05;;;;;;;-1.36;100.00;94133.94;4910122;29;20036;-92
2021/12/04 00:14:49;;;;;;;5.03;1.98;;;;;;;-1.31;100.00;94136.72;4909079;29;20038;-92
2021/12/04 00:17:15;;;;;;;4.07;2.05;;;;;;;-1.29;100.00;94129.59;4908998;29;20032;-93
2021/12/04 00:19:40;;;;;;;3.20;2.00;;;;;;;-1.27;100.00;94137.91;4908665;29;20058;-91
2021/12/04 00:22:06;;;;;;;5.45;2.03;;;;;;;-1.29;100.00;94125.28;4940387;29;20103;-92
2021/12/04 00:24:31;;;;;;;4.72;2.53;;;;;;;-1.59;100.00;94119.72;4908650;29;20031;-92
2021/12/04 00:26:57;;;;;;;4.90;2.45;;;;;;;-1.59;100.00;94125.66;4940318;29;20039;-91
2021/12/04 00:29:24;;;;;;;7.72;2.88;;;;;;;-1.58;100.00;94106.69;4940379;29;20040;-92
2021/12/04 00:49:12;;;;;;;7.75;3.58;;;;;;;-1.35;100.00;94115.00;4926625;29;20034;-92
2021/12/04 00:51:11;;;;;;;6.18;2.70;;;;;;;-1.34;100.00;94107.06;4916555;29;20035;-92
2021/12/04 00:53:37;;;;;;;5.38;2.78;;;;;;;-1.21;100.00;94113.19;4908428;29;20036;-91
2021/12/04 00:56:03;;;;;;;4.47;2.50;;;;;;;-1.12;100.00;94103.47;4908136;29;20027;-92
2021/12/04 00:58:28;;;;;;;9.20;2.55;;;;;;;-1.09;100.00;94111.59;4908351;29;20032;-91
2021/12/04 01:00:54;;;;;;;3.47;1.92;;;;;;;-0.86;100.00;94113.72;4908114;29;20074;-91
2021/12/04 01:03:19;;;;;;;6.80;2.22;;;;;;;-0.75;100.00;94109.72;4908379;29;20031;-92
2021/12/04 01:05:45;;;;;;;3.60;1.88;;;;;;;-0.67;100.00;94103.56;4908346;29;20059;-92
2021/12/04 01:08:10;;;;;;;3.45;2.05;;;;;;;-0.91;100.00;94095.53;4908247;29;20038;-92
2021/12/04 01:10:36;;;;;;;3.17;1.98;;;;;;;-0.76;100.00;94086.78;4907896;29;20353;-92
2021/12/04 01:13:06;;;;;;;3.33;1.73;;;;;;;-0.73;100.00;94076.88;4908278;29;20043;-92
2021/12/04 01:15:31;;;;;;;3.60;2.00;;;;;;;-0.78;100.00;94073.34;4924111;29;20027;-93
2021/12/04 01:17:57;;;;;;;7.72;2.40;;;;;;;-0.63;100.00;94066.16;4907982;29;20441;-93
2021/12/04 01:20:22;;;;;;;2.92;1.85;;;;;;;-0.47;100.00;94059.75;4939664;29;20436;-92
2021/12/04 01:22:48;;;;;;;4.35;2.13;;;;;;;-0.50;100.00;94060.16;4907813;29;20178;-92
2021/12/04 01:25:13;;;;;;;6.20;2.45;;;;;;;-0.70;100.00;94070.53;4907679;29;20393;-92
2021/12/04 01:27:39;;;;;;;5.18;2.92;;;;;;;-0.90;100.00;94060.31;4907680;29;20345;-92
2021/12/04 01:30:06;;;;;;;9.13;2.90;;;;;;;-0.94;100.00;94061.72;4939263;29;20031;-91
2021/12/04 01:32:32;;;;;;;5.30;2.95;;;;;;;-0.72;100.00;94072.53;4907969;29;20035;-92
2021/12/04 01:34:58;;;;;;;6.28;3.17;;;;;;;-0.62;100.00;94072.88;4939229;29;20035;-92
2021/12/04 01:37:23;;;;;;;5.53;3.10;;;;;;;-0.49;100.00;94074.59;4907802;29;20035;-92
2021/12/04 01:39:48;;;;;;;8.15;3.30;;;;;;;-0.51;100.00;94075.78;4907557;29;20035;-92
2021/12/04 01:42:18;;;;;;;7.68;3.10;;;;;;;-0.43;100.00;94083.28;4923202;29;20083;-92
2021/12/04 01:44:43;;;;;;;4.70;2.63;;;;;;;-0.58;100.00;94081.78;4922891;29;20042;-92
2021/12/04 01:47:13;;;;;;;8.00;2.85;;;;;;;-0.73;100.00;94076.88;4907382;29;20031;-92
2021/12/04 01:49:39;;;;;;;4.88;1.67;;;;;;;-0.77;100.00;94070.56;4907558;29;20035;-91
2021/12/04 01:52:06;;;;;;;3.92;1.80;;;;;;;-0.54;100.00;94063.34;4907674;29;20345;-91
2021/12/04 01:54:31;;;;;;;3.40;1.58;;;;;;;-0.69;100.00;94066.19;4938874;29;20031;-91
2021/12/04 01:56:57;;;;;;;2.53;1.50;;;;;;;-0.41;100.00;94057.34;4907337;29;20458;-91
2021/12/04 01:59:22;;;;;;;6.15;1.60;;;;;;;-0.49;100.00;94048.88;4907432;29;20042;-92
2021/12/04 02:05:10;;;;;;;5.70;1.75;;;;;;;-0.62;100.00;94048.94;4939626;29;20138;-92
2021/12/04 02:07:35;;;;;;;4.50;2.03;;;;;;;-0.84;100.00;94040.69;4907265;29;20122;-93
2021/12/04 02:10:06;;;;;;;8.65;2.10;;;;;;;-0.96;100.00;94030.28;4907339;29;20059;-92
2021/12/04 02:12:31;;;;;;;5.00;2.22;;;;;;;-0.86;100.00;94025.50;4907605;29;20058;-91
2021/12/04 02:14:57;;;;;;;6.25;1.65;;;;;;;-1.12;100.00;94018.63;4907112;29;20063;-91
2021/12/04 02:17:23;;;;;;;3.92;1.80;;;;;;;-1.24;100.00;94013.34;4906973;29;20070;-92
2021/12/04 02:19:49;;;;;;;3.30;1.50;;;;;;;-1.29;100.00;94016.50;4907102;29;20032;-92
2021/12/04 02:22:23;;;;;;;3.22;1.80;;;;;;;-1.31;100.00;94013.34;4908445;29;20434;-91
2021/12/04 02:24:48;;;;;;;3.30;1.95;;;;;;;-1.42;100.00;94009.63;4911292;29;20039;-92
2021/12/04 02:27:14;;;;;;;3.03;1.80;;;;;;;-1.47;100.00;94012.00;4926559;29;20039;-93
2021/12/04 02:29:47;;;;;;;3.53;1.70;;;;;;;-1.51;100.00;94000.53;4943363;29;20059;-91
2021/12/04 02:32:13;;;;;;;5.00;1.38;;;;;;;-1.44;100.00;93998.75;4911873;29;20032;-92
2021/12/04 02:34:39;;;;;;;3.13;1.48;;;;;;;-1.45;100.00;93992.03;4910775;29;20031;-92
2021/12/04 02:37:07;;;;;;;2.88;1.50;;;;;;;-1.43;100.00;93980.56;4910727;29;20031;-91
2021/12/04 02:42:54;;;;;;;3.42;1.40;;;;;;;-1.46;100.00;93982.72;4943246;28;20046;-91
2021/12/04 02:45:20;;;;;;;4.10;2.00;;;;;;;-1.46;100.00;93982.72;4910671;29;20039;-92
2021/12/04 02:47:45;;;;;;;4.32;2.33;;;;;;;-1.44;100.00;93984.13;4910493;29;20357;-91
2021/12/04 02:50:12;;;;;;;4.38;1.73;;;;;;;-1.43;100.00;93988.28;4910554;29;20452;-93
2021/12/04 02:52:38;;;;;;;6.63;2.03;;;;;;;-1.41;100.00;93985.50;4910467;29;20031;-92
2021/12/04 02:55:23;;;;;;;4.40;1.63;;;;;;;-1.47;100.00;93979.38;4941842;29;20024;-92
2021/12/04 02:58:07;;;;;;;2.50;1.58;;;;;;;-1.40;100.00;93978.56;4910667;29;20086;-91
2021/12/04 03:00:33;;;;;;;3.00;1.48;;;;;;;-1.38;100.00;93982.53;4942894;29;20489;-91
2021/12/04 03:02:59;;;;;;;5.18;2.03;;;;;;;-1.53;100.00;93979.41;4925773;29;20031;-91
2021/12/04 03:05:27;;;;;;;6.15;2.38;;;;;;;-1.59;100.00;93970.72;4941445;29;20063;-91
2021/12/04 03:07:54;;;;;;;5.90;1.83;;;;;;;-1.61;100.00;93952.16;4941734;29;20031;-90
2021/12/04 03:10:38;;;;;;;2.15;1.45;;;;;;;-1.53;100.00;93949.34;4925609;29;20036;-92
2021/12/04 03:13:07;;;;;;;3.03;1.58;;;;;;;-1.53;100.00;93949.34;4910185;29;20036;-91
2021/12/04 03:15:59;;;;;;;3.25;1.80;;;;;;;-1.60;100.00;93939.09;4910763;29;20229;-92
2021/12/04 03:21:28;;;;;;;6.10;1.98;;;;;;;-1.71;100.00;93929.44;4928108;29;20082;-92
2021/12/04 03:23:57;;;;;;;4.65;1.92;;;;;;;-1.79;100.00;93937.34;4910008;29;20039;-91
2021/12/04 03:26:42;;;;;;;4.57;1.60;;;;;;;-1.77;100.00;93932.81;4941515;29;20043;-91
2021/12/04 03:29:12;;;;;;;6.25;1.63;;;;;;;-1.65;100.00;93936.34;4925579;29;20027;-92
2021/12/04 03:42:33;;;;;;;3.97;1.70;;;;;;;-1.36;100.00;93928.34;4925067;29;20114;-91
2021/12/04 03:44:58;;;;;;;5.25;1.77;;;;;;;-1.23;100.00;93919.81;4941085;29;20389;-92
2021/12/04 03:47:24;;;;;;;3.63;1.20;;;;;;;-1.33;100.00;93918.44;4909515;29;20126;-91
2021/12/04 03:49:50;;;;;;;2.83;1.45;;;;;;;-1.32;100.00;93914.09;4909514;29;20114;-93
2021/12/04 03:52:15;;;;;;;6.25;1.33;;;;;;;-1.39;100.00;93910.75;4909618;29;20106;-92
2021/12/04 03:54:41;;;;;;;3.03;1.25;;;;;;;-1.36;100.00;93905.22;4909461;29;20318;-92
2021/12/04 03:57:07;;;;;;;2.50;1.17;;;;;;;-1.12;100.00;93903.75;4924831;29;20135;-91
2021/12/04 03:59:38;;;;;;;1.55;0.93;;;;;;;-1.12;100.00;93908.88;4909326;29;20070;-92
2021/12/04 04:02:05;;;;;;;1.35;0.88;;;;;;;-1.14;100.00;93900.59;4909140;29;20349;-92
2021/12/04 04:04:31;;;;;;;1.75;0.80;;;;;;;-1.01;100.00;93910.78;4908837;29;20039;-92
2021/12/04 04:06:59;;;;;;;2.78;0.93;;;;;;;-0.89;100.00;93908.38;4909224;29;20516;-92
2021/12/04 04:09:24;;;;;;;3.22;0.98;;;;;;;-0.86;100.00;93902.03;4909345;29;20353;-91
2021/12/04 04:11:50;;;;;;;2.83;0.68;;;;;;;-1.10;100.00;93901.75;4940704;29;20090;-91
2021/12/04 04:14:15;;;;;;;1.88;0.95;;;;;;;-1.29;100.00;93898.28;4908992;29;20038;-92
2021/12/04 04:16:41;;;;;;;7.05;1.08;;;;;;;-1.39;100.00;93900.47;4940577;29;20430;-92
2021/12/04 04:19:08;;;;;;;3.42;0.80;;;;;;;-1.25;100.00;93903.81;4909234;29;20039;-91
2021/12/04 04:25:00;;;;;;;5.25;1.25;;;;;;;-1.04;100.00;93902.72;4941205;29;20497;-90
2021/12/04 04:27:27;;;;;;;3.03;1.20;;;;;;;-1.16;100.00;93902.56;4908621;29;20032;-91
2021/12/04 04:29:53;;;;;;;2.40;1.40;;;;;;;-1.26;100.00;93913.28;4940042;29;20425;-90
2021/12/04 04:32:18;;;;;;;1.42;1.00;;;;;;;-1.20;100.00;93907.34;4908668;29;20038;-91
2021/12/04 04:34:51;;;;;;;3.55;1.23;;;;;;;-1.17;100.00;93904.34;4908853;29;20381;-91
2021/12/04 05:12:27;;;;;;;2.85;1.15;;;;;;;-1.53;100.00;93882.53;4926116;29;20087;-91
2021/12/04 05:15:14;;;;;;;3.30;1.30;;;;;;;-1.61;100.00;93885.34;4925936;29;20131;-91
2021/12/04 05:20:26;;;;;;;0.98;0.70;;;;;;;-1.50;100.00;93864.16;4939586;29;20031;-91
2021/12/04 05:22:52;;;;;;;2.17;1.30;;;;;;;-1.53;100.00;93858.66;4909178;29;20024;-91
2021/12/04 05:25:17;;;;;;;3.90;1.30;;;;;;;-1.46;100.00;93859.38;4907720;29;20079;-91
2021/12/04 05:27:43;;;;;;;4.70;2.55;;;;;;;-1.58;100.00;93864.38;4907931;29;20030;-91
2021/12/04 05:30:09;;;;;;;2.30;1.00;;;;;;;-1.49;100.00;93862.38;4907435;29;20437;-92
2021/12/04 05:32:34;;;;;;;1.38;1.02;;;;;;;-1.37;100.00;93865.09;4923339;29;20030;-90
2021/12/04 05:35:00;;;;;;;1.83;1.10;;;;;;;-1.43;100.00;93857.22;4923168;29;20342;-92
2021/12/04 05:37:25;;;;;;;1.50;0.60;;;;;;;-1.47;100.00;93860.38;4907540;29;20349;-91
2021/12/04 05:40:11;;;;;;;3.33;0.88;;;;;;;-1.38;100.00;93848.88;4907800;29;20027;-92
2021/12/04 05:42:37;;;;;;;2.17;0.98;;;;;;;-1.37;100.00;93842.75;4923085;29;20031;-90
2021/12/04 05:45:05;;;;;;;1.83;0.75;;;;;;;-1.30;100.00;93856.34;4922785;29;20046;-90
2021/12/04 05:47:38;;;;;;;1.80;1.00;;;;;;;-1.43;100.00;93852.06;4919820;29;20050;-91
2021/12/04 05:50:36;;;;;;;2.40;0.90;;;;;;;-1.51;100.00;93854.09;4918983;29;20063;-90
2021/12/04 05:55:28;;;;;;;2.25;1.13;;;;;;;-1.53;100.00;93856.06;4919811;29;20032;-91
2021/12/04 05:58:12;;;;;;;3.83;1.00;;;;;;;-1.38;100.00;93853.22;4904474;29;20036;-91
2021/12/04 06:00:58;;;;;;;1.58;0.98;;;;;;;-1.38;100.00;93853.22;4919798;29;20042;-91
2021/12/04 06:03:24;;;;;;;1.90;1.23;;;;;;;-1.33;100.00;93851.63;4919833;29;20032;-91
2021/12/04 06:05:50;;;;;;;1.17;1.00;;;;;;;-1.26;100.00;93858.53;4903733;29;20047;-91
2021/12/04 06:08:15;;;;;;;3.20;1.35;;;;;;;-1.10;100.00;93859.81;4919763;29;20028;-91
2021/12/04 06:10:41;;;;;;;2.08;0.90;;;;;;;-1.09;100.00;93857.03;4919892;29;20039;-91
2021/12/04 06:13:07;;;;;;;3.35;1.25;;;;;;;-1.12;100.00;93857.47;4919425;29;20047;-91
2021/12/04 06:15:33;;;;;;;1.55;0.93;;;;;;;-1.18;100.00;93858.28;4919690;29;20028;-91
2021/12/04 06:17:59;;;;;;;3.08;0.80;;;;;;;-1.32;100.00;93858.34;4919594;29;20123;-90
2021/12/04 06:23:09;;;;;;;3.72;1.65;;;;;;;-1.35;100.00;93863.91;4906228;29;20036;-91
2021/12/04 06:25:35;;;;;;;1.88;1.10;;;;;;;-1.40;100.00;93862.94;4920021;29;20057;-91
2021/12/04 06:28:01;;;;;;;2.20;1.15;;;;;;;-1.47;100.00;93856.06;4920348;29;20028;-91
2021/12/04 06:30:26;;;;;;;3.05;1.13;;;;;;;-1.49;100.00;93857.22;4922642;29;20058;-91
2021/12/04 06:32:53;;;;;;;3.03;1.33;;;;;;;-1.50;100.00;93853.91;4922448;29;20036;-91
2021/12/04 06:35:21;;;;;;;2.63;1.13;;;;;;;-1.47;100.00;93855.25;4907059;29;20118;-91
2021/12/04 06:37:50;;;;;;;2.03;1.05;;;;;;;-1.36;100.00;93853.81;4922596;29;20043;-91
2021/12/04 06:40:18;;;;;;;4.25;1.13;;;;;;;-1.35;100.00;93858.75;4907139;29;20131;-90
2021/12/04 06:42:44;;;;;;;4.10;1.50;;;;;;;-1.35;100.00;93848.47;4922575;29;20028;-90
2021/12/04 06:45:11;;;;;;;3.08;1.58;;;;;;;-1.43;100.00;93851.28;4922237;29;20031;-90
2021/12/04 06:47:38;;;;;;;3.95;1.50;;;;;;;-1.40;100.00;93832.88;4907012;29;20122;-90
2021/12/04 06:50:16;;;;;;;3.10;1.25;;;;;;;-1.32;100.00;93837.00;4922825;29;20119;-90
2021/12/04 06:52:44;;;;;;;2.92;1.45;;;;;;;-1.42;100.00;93843.38;4922895;29;20023;-91
2021/12/04 06:55:36;;;;;;;2.63;1.30;;;;;;;-1.31;100.00;93849.63;4907433;29;20027;-92
2021/12/04 06:58:02;;;;;;;3.17;1.10;;;;;;;-1.11;100.00;93848.75;4922554;29;20032;-91
2021/12/04 07:00:30;;;;;;;2.70;1.33;;;;;;;-1.06;100.00;93843.75;4922644;29;20326;-92
2021/12/04 07:02:55;;;;;;;2.47;1.27;;;;;;;-1.01;100.00;93843.16;4907164;29;20032;-91
2021/12/04 07:05:20;;;;;;;3.03;1.27;;;;;;;-0.95;100.00;93838.97;4922374;29;20496;-90
2021/12/04 07:08:05;;;;;;;2.47;1.10;;;;;;;-0.75;100.00;93836.25;4906674;29;20472;-88
2021/12/04 07:13:16;;;;;;;1.30;0.90;;;;;;;-0.55;100.00;93832.72;4941603;29;20066;-89
2021/12/04 07:15:45;;;;;;;3.30;0.93;;;;;;;-0.47;100.00;93832.47;4925672;29;20078;-89
2021/12/04 07:18:10;;;;;;;4.50;1.80;;;;;;;0.05;100.00;93832.19;4910379;29;20031;-90
2021/12/04 07:20:36;;;;;;;3.70;1.40;;;;;;;0.20;100.00;93825.88;4925368;29;20342;-90
2021/12/04 07:23:01;;;;;;;3.70;1.60;;;;;;;0.28;100.00;93828.16;4909890;29;20564;-90
2021/12/04 07:25:46;;;;;;;3.35;1.42;;;;;;;0.24;100.00;93832.16;4925414;29;20032;-91
2021/12/04 07:28:11;;;;;;;3.72;1.85;;;;;;;0.25;100.00;93826.00;4941448;29;20034;-91
2021/12/04 07:30:37;;;;;;;7.60;1.95;;;;;;;0.30;100.00;93836.47;4941498;29;20023;-94
2021/12/04 07:33:02;;;;;;;2.92;1.23;;;;;;;0.38;100.00;93827.66;4925809;29;20028;-91
2021/12/04 07:35:28;;;;;;;5.97;1.42;;;;;;;0.62;100.00;93820.03;4909957;29;20020;-90
2021/12/04 07:37:53;;;;;;;3.15;1.60;;;;;;;0.98;100.00;93821.72;4909194;29;20434;-90
2021/12/04 07:40:19;;;;;;;2.35;1.13;;;;;;;0.74;100.00;93822.66;4940922;29;20031;-90
2021/12/04 07:42:45;;;;;;;1.63;1.05;;;;;;;0.79;100.00;93809.88;4940593;29;20082;-89
2021/12/04 07:45:10;;;;;;;1.65;0.80;;;;;;;1.05;100.00;93818.28;4925000;29;20345;-90
2021/12/04 07:47:36;;;;;;;1.95;0.80;;;;;;;1.29;100.00;93826.84;4940828;29;20031;-90
2021/12/04 07:50:21;;;;;;;1.27;0.80;;;;;;;1.22;100.00;93808.06;4928610;29;20047;-88
2021/12/04 07:52:47;;;;;;;2.30;1.15;;;;;;;0.83;100.00;93814.41;4943506;29;20032;-93
2021/12/04 07:55:12;;;;;;;3.58;1.30;;;;;;;0.89;100.00;93815.31;4940982;29;20062;-92
2021/12/04 07:57:56;;;;;;;2.55;1.33;;;;;;;0.86;100.00;93809.81;4909389;29;20426;-92
2021/12/04 08:00:23;;;;;;;1.98;1.27;;;;;;;0.95;100.00;93822.16;4925596;29;20023;-93
2021/12/04 08:02:48;;;;;;;3.28;0.80;;;;;;;1.32;100.00;93823.81;4909371;29;20062;-92
2021/12/04 08:05:14;;;;;;;3.10;1.00;;;;;;;1.13;100.00;93805.03;4940821;29;20031;-94
2021/12/04 08:07:40;;;;;;;2.50;0.82;;;;;;;0.95;100.00;93795.59;4909435;29;20074;-92
2021/12/04 08:10:08;;;;;;;2.03;0.95;;;;;;;0.83;100.00;93811.00;4940928;29;20028;-93
2021/12/04 08:12:35;;;;;;;4.68;1.20;;;;;;;0.78;100.00;93813.47;4909477;29;20024;-92
2021/12/04 08:15:02;;;;;;;1.58;1.00;;;;;;;0.80;100.00;93804.53;4940516;29;20028;-93
2021/12/04 08:17:28;;;;;;;5.15;1.10;;;;;;;1.04;100.00;93806.38;4925201;29;20083;-92
2021/12/04 08:19:53;;;;;;;1.08;0.80;;;;;;;1.14;100.00;93793.69;4908116;29;20127;-92
2021/12/04 08:22:19;;;;;;;1.35;0.95;;;;;;;1.62;100.00;93802.28;4924874;29;20111;-92
2021/12/04 08:24:47;;;;;;;1.33;0.70;;;;;;;1.70;100.00;93795.97;4924703;29;20034;-92
2021/12/04 08:27:31;;;;;;;1.95;0.90;;;;;;;1.37;100.00;93787.81;4909167;29;20020;-92
2021/12/04 08:29:56;;;;;;;1.92;0.90;;;;;;;1.56;100.00;93782.53;4924111;29;20047;-92
2021/12/04 08:32:24;;;;;;;3.05;1.23;;;;;;;2.09;100.00;93775.59;4940496;29;20031;-91
2021/12/04 08:34:51;;;;;;;2.05;0.93;;;;;;;2.34;100.00;93784.88;4909281;29;20031;-91
2021/12/04 08:37:17;;;;;;;2.83;1.25;;;;;;;2.73;100.00;93786.09;4908809;29;20476;-93
2021/12/04 08:39:43;;;;;;;2.38;1.20;;;;;;;2.00;100.00;93781.34;4908856;29;20035;-92
2021/12/04 08:42:27;;;;;;;3.78;0.90;;;;;;;1.92;100.00;93774.75;4908914;29;20039;-93
2021/12/04 08:44:53;;;;;;;3.22;0.90;;;;;;;1.77;100.00;93768.25;4908703;29;20433;-92
2021/12/04 08:47:19;;;;;;;1.92;0.88;;;;;;;2.16;100.00;93767.72;4908668;29;20032;-92
2021/12/04 08:49:45;;;;;;;3.63;1.10;;;;;;;2.57;100.00;93767.69;4924195;29;20062;-92
2021/12/04 08:52:11;;;;;;;4.32;1.60;;;;;;;2.28;100.00;93764.34;4924163;29;20034;-92
2021/12/04 08:54:37;;;;;;;9.45;2.08;;;;;;;2.60;100.00;93748.34;4924061;29;20038;-92
2021/12/04 08:59:48;;;;;;;5.70;1.88;;;;;;;2.97;100.00;93745.34;4926487;29;20036;-93
2021/12/04 09:02:15;;;;;;;4.95;1.60;;;;;;;2.87;100.00;93751.16;4924024;29;20349;-93
2021/12/04 09:04:40;;;;;;;9.88;1.50;;;;;;;3.17;100.00;93741.50;4923841;29;20039;-92
2021/12/04 09:07:08;;;;;;;5.07;1.85;;;;;;;3.16;100.00;93743.31;4939892;29;20074;-93
2021/12/04 09:09:34;;;;;;;3.60;1.30;;;;;;;3.37;100.00;93736.66;4908078;29;20434;-93
2021/12/04 09:12:04;;;;;;;5.88;1.40;;;;;;;3.33;100.00;93738.13;4908267;29;20031;-92
2021/12/04 09:14:33;;;;;;;5.25;1.55;;;;;;;3.68;100.00;93744.03;4908172;29;20032;-93
2021/12/04 09:17:00;;;;;;;5.18;1.45;;;;;;;3.59;100.00;93745.50;4908002;29;20330;-93
2021/12/04 09:19:25;;;;;;;5.88;1.45;;;;;;;4.10;100.00;93740.94;4908064;29;20039;-92
2021/12/04 09:21:52;;;;;;;8.80;3.40;;;;;;;3.32;100.00;93730.59;4908052;29;20455;-93
2021/12/04 09:24:24;;;;;;;8.35;2.13;;;;;;;3.30;100.00;93737.81;4907801;29;20035;-92
2021/12/04 09:27:07;;;;;;;7.90;1.80;;;;;;;3.57;100.00;93734.56;4908817;29;20035;-92
2021/12/04 10:22:19;;;;;;;26.73;12.00;;;;;;;6.83;100.00;93619.81;4924581;29;20034;-92
2021/12/04 10:31:58;;;;;;;18.67;7.53;;;;;;;6.83;100.00;93622.41;4923019;29;20390;-93
2021/12/04 10:33:18;;;;;;;24.15;10.10;;;;;;;7.29;100.00;93602.53;4925260;29;20091;-92
2021/12/04 10:35:44;;;;;;;;;;;;;;;7.43;100.00;93597.56;4907483;29;20026;-93
2021/12/04 10:38:31;;;;;;;76.82;30.70;;;;;;;7.72;100.00;93595.09;4904092;29;19915;-92
2021/12/04 10:41:00;;;;;;;46.72;19.10;;;;;;;7.40;100.00;93585.06;4904029;29;20434;-92
2021/12/04 10:43:28;;;;;;;60.50;24.50;;;;;;;7.01;100.00;93584.63;4920850;29;20088;-93
2021/12/04 10:45:59;;;;;;;16.55;7.95;;;;;;;6.47;100.00;93580.78;4907323;29;20354;-93
2021/12/04 10:48:29;;;;;;;112.40;47.15;;;;;;;6.73;100.00;93580.75;4923070;29;20082;-93
2021/12/04 10:51:36;;;;;;;23.48;10.48;;;;;;;6.40;100.00;93569.84;4907400;29;20024;-92
2021/12/04 10:54:26;;;;;;;10.75;4.50;;;;;;;6.75;100.00;93576.84;4907296;29;20034;-92
2021/12/04 11:00:06;;;;;;;8.10;3.97;;;;;;;6.85;100.00;93572.69;4923926;29;20039;-92
2021/12/04 11:02:43;;;;;;;4.30;1.65;;;;;;;6.92;100.00;93573.19;4921400;29;20035;-93
2021/12/04 11:38:38;;;;;;;2.08;1.02;;;;;;;7.40;95.80;93525.91;4907344;29;20345;-92
2021/12/04 11:49:38;;;;;;;2.63;1.42;;;;;;;7.06;100.00;93497.91;4904186;29;20048;-92
2021/12/04 11:52:11;;;;;;;3.53;1.30;;;;;;;7.00;100.00;93491.13;4922781;29;20032;-92
2021/12/04 11:54:51;;;;;;;20.27;9.68;;;;;;;7.36;100.00;93496.22;4890780;29;20043;-92
2021/12/04 11:57:28;;;;;;;39.35;19.05;;;;;;;7.17;100.00;93502.03;4890565;29;20191;-91
2021/12/04 12:03:06;;;;;;;3.90;1.30;;;;;;;6.83;100.00;93489.63;4908401;29;20465;-92
2021/12/04 12:05:42;;;;;;;2.42;1.35;;;;;;;6.91;100.00;93489.09;4924361;29;20032;-91
2021/12/04 12:08:07;;;;;;;4.72;2.30;;;;;;;7.18;100.00;93490.56;4935134;29;20035;-92
2021/12/04 12:10:47;;;;;;;4.38;1.30;;;;;;;6.79;100.00;93478.19;4924845;29;20036;-91
2021/12/04 12:13:29;;;;;;;5.38;1.40;;;;;;;6.66;100.00;93474.28;4924495;29;20111;-90
2021/12/04 12:16:10;;;;;;;2.67;1.52;;;;;;;6.42;100.00;93463.69;4908782;29;20038;-89
2021/12/04 12:18:45;;;;;;;2.30;1.38;;;;;;;6.26;100.00;93468.91;4940522;29;20082;-91
2021/12/04 12:21:33;;;;;;;5.30;1.48;;;;;;;7.04;100.00;93466.13;4908808;29;20040;-89
2021/12/04 12:38:40;;;;;;;1.98;1.23;;;;;;;7.83;100.00;93443.78;4941043;29;20094;-91
2021/12/04 12:41:30;;;;;;;3.63;2.00;;;;;;;8.00;100.00;93435.59;4878861;29;20050;-90
2021/12/04 12:44:17;;;;;;;6.40;1.67;;;;;;;8.07;100.00;93446.47;4924029;29;20038;-91
2021/12/04 12:46:48;;;;;;;5.00;1.70;;;;;;;8.21;100.00;93420.53;4901709;29;20087;-91
2021/12/04 12:49:19;;;;;;;12.85;4.97;;;;;;;8.16;100.00;93421.34;4920733;29;20036;-90
2021/12/04 12:51:56;;;;;;;5.25;1.80;;;;;;;7.44;100.00;93412.25;4904212;29;20441;-91
2021/12/04 12:54:36;;;;;;;5.28;2.10;;;;;;;7.50;100.00;93424.19;4923620;29;20092;-91
2021/12/04 12:57:25;;;;;;;3.13;1.55;;;;;;;7.38;100.00;93423.75;4939488;29;20353;-91
2021/12/04 13:12:22;;;;;;;;;;;;;;;;;;;;;
2021/12/04 13:14:51;;;;;;;4.57;2.00;;;;;;;5.90;100.00;93404.66;4925651;29;20037;-92
2021/12/04 13:17:23;;;;;;;4.93;1.83;;;;;;;6.08;100.00;93400.78;4908110;29;20122;-92
2021/12/04 13:19:53;;;;;;;16.52;7.22;;;;;;;5.99;100.00;93376.31;4907968;29;20027;-92
2021/12/04 13:22:27;;;;;;;5.30;2.25;;;;;;;6.10;100.00;93369.31;4923592;29;20032;-92
2021/12/04 13:24:54;;;;;;;6.90;2.00;;;;;;;6.07;100.00;93368.03;4923372;29;20028;-92
2021/12/04 13:29:53;;;;;;;4.90;2.60;;;;;;;6.01;100.00;93368.25;4923764;29;20126;-92
2021/12/04 13:32:32;;;;;;;4.65;1.80;;;;;;;5.92;100.00;93358.38;4939512;29;20034;-92
2021/12/04 13:35:11;;;;;;;5.53;2.28;;;;;;;5.98;100.00;93363.59;4939010;29;20103;-92
2021/12/04 13:37:37;;;;;;;4.82;1.95;;;;;;;5.81;100.00;93354.25;4939151;29;20031;-92
2021/12/04 13:40:21;;;;;;;4.97;2.53;;;;;;;5.44;100.00;93340.47;4923361;29;20084;-92
2021/12/04 13:42:48;;;;;;;8.35;3.30;;;;;;;5.30;100.00;93340.22;4923299;29;20035;-91
2021/12/04 13:45:18;;;;;;;5.70;2.70;;;;;;;5.37;100.00;93330.34;4923012;29;20430;-92
2021/12/04 13:48:03;;;;;;;242.35;65.85;;;;;;;5.56;100.00;93329.06;4934612;29;20024;-92
2021/12/04 13:56:09;;;;;;;21.08;6.32;;;;;;;5.33;100.00;93339.69;4939926;29;20075;-92
2021/12/04 13:58:43;;;;;;;6.20;3.45;;;;;;;5.34;100.00;93340.50;4907385;29;20024;-92
2021/12/04 14:01:08;;;;;;;29.38;11.00;;;;;;;5.35;100.00;93342.81;4923025;29;20028;-92
2021/12/04 14:03:34;;;;;;;6.30;3.70;;;;;;;5.15;100.00;93327.22;4907292;29;20096;-93
2021/12/04 14:05:59;;;;;;;9.32;4.20;;;;;;;4.98;100.00;93333.44;4938898;29;20106;-92
2021/12/04 14:08:25;;;;;;;9.48;4.03;;;;;;;5.17;100.00;93323.34;4938880;29;20032;-92
2021/12/04 14:10:51;;;;;;;15.70;4.43;;;;;;;5.03;100.00;93311.91;4922907;29;20345;-92
2021/12/04 14:13:20;;;;;;;18.20;7.15;;;;;;;5.01;100.00;93327.72;4907170;29;20031;-92
2021/12/04 14:15:47;;;;;;;8.35;4.25;;;;;;;5.24;100.00;93334.25;4923081;29;20059;-92
2021/12/04 14:18:15;;;;;;;15.02;7.60;;;;;;;5.03;100.00;93311.91;4910189;29;20349;-92
2021/12/04 14:21:01;;;;;;;11.18;5.32;;;;;;;5.04;100.00;93329.03;4926573;29;20031;-92
2021/12/04 14:23:31;;;;;;;28.63;13.95;;;;;;;4.70;100.00;93321.69;4943656;29;20031;-92
2021/12/04 14:25:56;;;;;;;26.55;13.75;;;;;;;4.82;100.00;93306.66;4926660;29;20087;-92
2021/12/04 14:28:43;;;;;;;30.35;14.68;;;;;;;4.42;100.00;93310.72;4910966;29;20024;-92
2021/12/04 14:31:27;;;;;;;23.00;10.63;;;;;;;4.47;100.00;93303.72;4927041;29;20038;-92
2021/12/04 14:33:53;;;;;;;21.77;9.20;;;;;;;4.48;100.00;93299.34;4942556;29;20032;-92
2021/12/04 14:36:20;;;;;;;18.08;9.45;;;;;;;4.58;100.00;93312.31;4942529;29;20088;-92
2021/12/04 14:38:47;;;;;;;23.17;10.93;;;;;;;4.66;100.00;93304.03;4911015;29;20051;-92
2021/12/04 14:41:14;;;;;;;19.73;9.90;;;;;;;4.58;100.00;93301.94;4926359;29;20038;-92
2021/12/04 14:43:40;;;;;;;15.85;7.97;;;;;;;4.62;100.00;93310.78;4926543;29;20040;-92
2021/12/04 14:46:29;;;;;;;25.45;13.02;;;;;;;4.40;100.00;93303.19;4926113;29;20035;-92
2021/12/04 14:48:56;;;;;;;27.08;14.38;;;;;;;4.45;100.00;93307.63;4943218;29;20034;-93
2021/12/04 14:51:22;;;;;;;29.00;15.57;;;;;;;4.41;100.00;93304.75;4926417;29;20456;-92
2021/12/04 14:54:08;;;;;;;35.33;18.17;;;;;;;4.07;100.00;93286.97;4926095;29;20024;-92
2021/12/04 14:56:34;;;;;;;515.65;129.02;;;;;;;4.24;100.00;93299.75;4922910;29;20032;-93
2021/12/04 14:59:00;;;;;;;53.92;27.00;;;;;;;4.00;100.00;93297.56;4923479;29;20143;-93
2021/12/04 15:01:33;;;;;;;52.45;27.60;;;;;;;3.76;100.00;93304.97;4923048;29;20036;-92
2021/12/04 15:04:02;;;;;;;82.95;38.15;;;;;;;3.66;100.00;93295.31;4907129;29;20028;-93
2021/12/04 15:06:48;;;;;;;84.43;38.17;;;;;;;3.53;100.00;93296.56;4922683;29;20036;-92
2021/12/04 15:09:15;;;;;;;56.03;27.92;;;;;;;3.41;100.00;93298.53;4923791;29;20492;-92
2021/12/04 15:11:44;;;;;;;65.47;32.70;;;;;;;3.21;100.00;93290.38;4922667;29;20078;-92
2021/12/04 15:14:20;;;;;;;52.22;27.27;;;;;;;3.43;100.00;93306.84;4906907;29;20032;-92
2021/12/04 15:16:52;;;;;;;52.28;24.15;;;;;;;3.48;100.00;93294.69;4906762;29;20031;-92
2021/12/04 15:19:27;;;;;;;43.55;22.38;;;;;;;3.61;100.00;93282.34;4907192;29;20079;-92
2021/12/04 15:21:59;;;;;;;58.50;26.45;;;;;;;3.46;100.00;93280.44;4922872;29;20032;-93
2021/12/04 15:24:29;;;;;;;49.97;26.58;;;;;;;3.22;100.00;93284.16;4906838;29;20035;-93
2021/12/04 15:26:57;;;;;;;63.15;34.42;;;;;;;3.49;100.00;93285.91;4923611;29;20080;-92
2021/12/04 15:29:26;;;;;;;52.35;27.08;;;;;;;3.42;100.00;93289.75;4922037;29;20028;-93
2021/12/04 15:31:53;;;;;;;70.22;33.55;;;;;;;3.27;100.00;93292.97;4922881;29;20024;-93
2021/12/04 15:34:39;;;;;;;59.05;29.13;;;;;;;3.21;100.00;93285.19;4922742;29;20031;-92
2021/12/04 15:37:06;;;;;;;54.78;27.75;;;;;;;3.40;100.00;93284.78;4910411;29;20032;-92